This demonstration page uses our WeatherBlox Daily Observations layout. Learn more.

38.89511, -77.03637

Hourly Observations for June 13, 2015

Temp ( °F °C ) Dew Point ( °F °C ) Humidity (%) Winds ( mph kmh ) Pressure ( in mb ) Visibility ( mi km ) Precip ( " mm )
12:52 am 00:52 Mostly Cloudy 79 26 72 22 79 79 SSW 3 6 29.91 1013 10 16.09344 0 0
1:52 am 01:52 Clear 79 26 72 22 79 79 S 3 6 29.91 1013 10 16.09344 0 0
2:52 am 02:52 Partly Cloudy 79 26 70 21 74 74 SW 3 6 29.91 1013 10 16.09344 0 0
3:52 am 03:52 Partly Cloudy 77 25 72 22 83 83 SSW 7 11 29.91 1013 10 16.09344 0 0
4:52 am 04:52 Mostly Cloudy 75 24 70 21 83 83 SSW 5 7 29.94 1014 10 16.09344 0 0
5:52 am 05:52 Cloudy 75 24 70 21 83 83 SSW 3 6 29.94 1014 10 16.09344 0 0
6:52 am 06:52 Cloudy 77 25 70 21 79 79 Calm 29.97 1015 10 16.09344 0 0
7:52 am 07:52 Mostly Cloudy 81 27 72 22 74 74 Calm 29.97 1015 10 16.09344 0 0
8:52 am 08:52 Mostly Cloudy 82 28 72 22 70 70 N 5 7 29.97 1015 10 16.09344 0 0
9:52 am 09:52 Mostly Cloudy 84 29 70 21 62 62 NW 9 15 30 1016 10 16.09344 0 0
10:52 am 10:52 Mostly Cloudy 88 31 70 21 55 55 NW 9 15 30 1016 10 16.09344 0 0
11:52 am 11:52 Mostly Cloudy 90 32 72 22 55 55 NNW 13 20 30.03 1017 10 16.09344 0 0
12:52 pm 12:52 Mostly Cloudy 90 32 70 21 52 52 NNW 13 20 30.03 1017 10 16.09344 0 0
1:52 pm 13:52 Mostly Cloudy 88 31 70 21 55 55 NNW 14 22 30.03 1017 10 16.09344 0 0
2:52 pm 14:52 Mostly Cloudy 90 32 72 22 55 55 N 7 11 30 1016 10 16.09344 0 0
3:52 pm 15:52 Mostly Cloudy 90 32 70 21 52 52 NNW 14 22 29.97 1015 10 16.09344 0 0
4:52 pm 16:52 Mostly Cloudy 90 32 70 21 52 52 WNW 8 13 29.97 1015 10 16.09344 0 0
5:52 pm 17:52 Mostly Cloudy 90 32 72 22 55 55 N 10 17 29.97 1015 10 16.09344 0 0
6:52 pm 18:52 Partly Cloudy 90 32 72 22 55 55 NNW 7 11 29.97 1015 10 16.09344 0 0
7:52 pm 19:52 Partly Cloudy 90 32 68 20 49 49 W 6 9 30 1016 10 16.09344 0 0
8:52 pm 20:52 Partly Cloudy 88 31 66 19 49 49 WNW 6 9 30 1016 10 16.09344 0 0
9:52 pm 21:52 Partly Cloudy 88 31 66 19 49 49 Calm 30 1016 10 16.09344 0 0
10:52 pm 22:52 Mostly Cloudy 82 28 72 22 70 70 Calm 30 1016 10 16.09344 0 0
11:52 pm 23:52 Cloudy 84 29 72 22 66 66 Calm 30 1016 10 16.09344 0 0

Powered by AerisWeather